sensor_id;sensor_type;location;lat;lon;timestamp;pressure;altitude;pressure_sealevel;temperature;humidity
55610;BME280;41486;52.502;13.486;2022-07-01T00:00:55;100611.66;;;22.33;88.61
55610;BME280;41486;52.502;13.486;2022-07-01T00:03:23;100618.19;;;22.46;88.96
55610;BME280;41486;52.502;13.486;2022-07-01T00:05:51;100625.84;;;22.56;88.41
55610;BME280;41486;52.502;13.486;2022-07-01T00:08:19;100613.25;;;21.99;91.44
55610;BME280;41486;52.502;13.486;2022-07-01T00:10:47;100614.00;;;22.15;90.80
55610;BME280;41486;52.502;13.486;2022-07-01T00:13:15;100616.31;;;22.46;88.71
55610;BME280;41486;52.502;13.486;2022-07-01T00:15:45;100617.81;;;22.27;90.03
55610;BME280;41486;52.502;13.486;2022-07-01T00:18:12;100622.16;;;22.28;90.78
55610;BME280;41486;52.502;13.486;2022-07-01T00:20:40;100617.44;;;22.30;89.91
55610;BME280;41486;52.502;13.486;2022-07-01T00:23:08;100609.25;;;22.10;91.23
55610;BME280;41486;52.502;13.486;2022-07-01T00:25:36;100609.81;;;22.05;91.38
55610;BME280;41486;52.502;13.486;2022-07-01T00:28:04;100616.00;;;22.34;90.23
55610;BME280;41486;52.502;13.486;2022-07-01T00:30:32;100605.91;;;22.36;89.69
55610;BME280;41486;52.502;13.486;2022-07-01T00:33:01;100598.31;;;22.12;92.67
55610;BME280;41486;52.502;13.486;2022-07-01T00:35:29;100601.88;;;21.69;94.72
55610;BME280;41486;52.502;13.486;2022-07-01T00:37:57;100595.63;;;21.83;95.55
55610;BME280;41486;52.502;13.486;2022-07-01T00:40:26;100594.03;;;21.89;94.63
55610;BME280;41486;52.502;13.486;2022-07-01T00:42:54;100596.91;;;21.66;95.98
55610;BME280;41486;52.502;13.486;2022-07-01T00:45:22;100582.97;;;21.55;97.31
55610;BME280;41486;52.502;13.486;2022-07-01T00:47:50;100573.00;;;21.64;96.86
55610;BME280;41486;52.502;13.486;2022-07-01T00:50:19;100571.00;;;21.73;96.36
55610;BME280;41486;52.502;13.486;2022-07-01T00:52:47;100571.13;;;21.86;94.84
55610;BME280;41486;52.502;13.486;2022-07-01T00:55:15;100577.19;;;21.73;96.77
55610;BME280;41486;52.502;13.486;2022-07-01T00:57:43;100586.00;;;21.96;95.33
55610;BME280;41486;52.502;13.486;2022-07-01T01:00:13;100585.63;;;22.27;92.78
55610;BME280;41486;52.502;13.486;2022-07-01T01:02:42;100586.97;;;22.10;94.59
55610;BME280;41486;52.502;13.486;2022-07-01T01:05:10;100584.31;;;21.88;96.20
55610;BME280;41486;52.502;13.486;2022-07-01T01:07:41;100584.13;;;21.89;96.00
55610;BME280;41486;52.502;13.486;2022-07-01T01:10:09;100583.25;;;21.82;96.55
55610;BME280;41486;52.502;13.486;2022-07-01T01:12:37;100584.09;;;21.83;96.81
55610;BME280;41486;52.502;13.486;2022-07-01T01:15:07;100590.84;;;22.07;94.82
55610;BME280;41486;52.502;13.486;2022-07-01T01:17:35;100590.66;;;22.09;94.62
55610;BME280;41486;52.502;13.486;2022-07-01T01:20:05;100586.78;;;22.11;94.63
55610;BME280;41486;52.502;13.486;2022-07-01T01:22:34;100589.25;;;22.13;94.13
55610;BME280;41486;52.502;13.486;2022-07-01T01:25:03;100579.34;;;22.42;92.59
55610;BME280;41486;52.502;13.486;2022-07-01T01:27:31;100583.28;;;22.39;92.24
55610;BME280;41486;52.502;13.486;2022-07-01T01:29:59;100587.34;;;22.63;90.62
55610;BME280;41486;52.502;13.486;2022-07-01T01:32:26;100592.81;;;21.92;95.18
55610;BME280;41486;52.502;13.486;2022-07-01T01:34:54;100575.44;;;21.59;97.80
55610;BME280;41486;52.502;13.486;2022-07-01T01:37:22;100572.44;;;21.97;95.99
55610;BME280;41486;52.502;13.486;2022-07-01T01:39:51;100570.94;;;22.45;94.12
55610;BME280;41486;52.502;13.486;2022-07-01T01:42:19;100571.00;;;22.30;94.50
55610;BME280;41486;52.502;13.486;2022-07-01T01:44:47;100565.94;;;21.85;96.92
55610;BME280;41486;52.502;13.486;2022-07-01T01:47:15;100573.97;;;22.06;96.59
55610;BME280;41486;52.502;13.486;2022-07-01T01:49:43;100577.41;;;22.29;94.58
55610;BME280;41486;52.502;13.486;2022-07-01T01:52:11;100564.78;;;22.51;93.62
55610;BME280;41486;52.502;13.486;2022-07-01T01:54:39;100558.25;;;22.03;95.00
55610;BME280;41486;52.502;13.486;2022-07-01T01:57:09;100560.50;;;22.28;95.06
55610;BME280;41486;52.502;13.486;2022-07-01T01:59:36;100552.41;;;21.93;96.25
55610;BME280;41486;52.502;13.486;2022-07-01T02:02:04;100548.91;;;22.21;96.21
55610;BME280;41486;52.502;13.486;2022-07-01T02:04:32;100541.38;;;21.74;98.68
55610;BME280;41486;52.502;13.486;2022-07-01T02:07:01;100550.16;;;21.25;100.00
55610;BME280;41486;52.502;13.486;2022-07-01T02:09:29;100543.34;;;21.44;100.00
55610;BME280;41486;52.502;13.486;2022-07-01T02:11:56;100542.47;;;21.58;100.00
55610;BME280;41486;52.502;13.486;2022-07-01T02:14:26;100542.34;;;21.52;100.00
55610;BME280;41486;52.502;13.486;2022-07-01T02:16:54;100537.09;;;21.58;100.00
55610;BME280;41486;52.502;13.486;2022-07-01T02:19:22;100546.75;;;21.16;100.00
55610;BME280;41486;52.502;13.486;2022-07-01T02:21:50;100543.50;;;20.99;100.00
55610;BME280;41486;52.502;13.486;2022-07-01T02:24:19;100547.84;;;20.70;100.00
55610;BME280;41486;52.502;13.486;2022-07-01T02:26:47;100548.81;;;21.79;100.00
55610;BME280;41486;52.502;13.486;2022-07-01T02:29:14;100556.06;;;21.85;100.00
55610;BME280;41486;52.502;13.486;2022-07-01T02:31:44;100561.09;;;21.30;100.00
55610;BME280;41486;52.502;13.486;2022-07-01T02:34:12;100555.31;;;21.48;100.00
55610;BME280;41486;52.502;13.486;2022-07-01T02:36:40;100555.88;;;20.85;100.00
55610;BME280;41486;52.502;13.486;2022-07-01T02:39:08;100558.41;;;21.52;100.00
55610;BME280;41486;52.502;13.486;2022-07-01T02:41:35;100560.47;;;21.50;100.00
55610;BME280;41486;52.502;13.486;2022-07-01T02:44:45;100560.47;;;21.50;100.00
55610;BME280;41486;52.502;13.486;2022-07-01T02:47:14;100560.34;;;21.36;100.00
55610;BME280;41486;52.502;13.486;2022-07-01T02:49:42;100567.78;;;21.41;100.00
55610;BME280;41486;52.502;13.486;2022-07-01T02:52:10;100565.03;;;21.12;100.00
55610;BME280;41486;52.502;13.486;2022-07-01T02:54:39;100575.31;;;20.64;100.00
55610;BME280;41486;52.502;13.486;2022-07-01T02:57:07;100574.94;;;20.97;100.00
55610;BME280;41486;52.502;13.486;2022-07-01T02:59:35;100574.13;;;21.33;100.00
55610;BME280;41486;52.502;13.486;2022-07-01T03:02:03;100568.81;;;21.40;100.00
55610;BME280;41486;52.502;13.486;2022-07-01T03:04:33;100571.34;;;21.63;100.00
55610;BME280;41486;52.502;13.486;2022-07-01T03:07:01;100574.25;;;21.10;100.00
55610;BME280;41486;52.502;13.486;2022-07-01T03:09:29;100575.78;;;20.98;100.00
55610;BME280;41486;52.502;13.486;2022-07-01T03:11:57;100577.94;;;21.09;100.00
55610;BME280;41486;52.502;13.486;2022-07-01T03:14:25;100582.50;;;20.93;100.00
55610;BME280;41486;52.502;13.486;2022-07-01T03:16:53;100582.41;;;21.02;100.00
55610;BME280;41486;52.502;13.486;2022-07-01T03:19:21;100583.63;;;20.99;100.00
55610;BME280;41486;52.502;13.486;2022-07-01T03:21:50;100587.25;;;20.76;100.00
55610;BME280;41486;52.502;13.486;2022-07-01T03:24:18;100586.66;;;20.96;100.00
55610;BME280;41486;52.502;13.486;2022-07-01T03:26:46;100582.97;;;20.97;100.00
55610;BME280;41486;52.502;13.486;2022-07-01T03:29:14;100581.75;;;21.00;100.00
55610;BME280;41486;52.502;13.486;2022-07-01T03:31:42;100575.13;;;20.95;100.00
55610;BME280;41486;52.502;13.486;2022-07-01T03:34:09;100587.56;;;21.03;100.00
55610;BME280;41486;52.502;13.486;2022-07-01T03:36:37;100585.03;;;20.95;100.00
55610;BME280;41486;52.502;13.486;2022-07-01T03:39:07;100579.94;;;20.85;100.00
55610;BME280;41486;52.502;13.486;2022-07-01T03:41:34;100574.59;;;21.22;100.00
55610;BME280;41486;52.502;13.486;2022-07-01T03:44:03;100582.75;;;21.14;100.00
55610;BME280;41486;52.502;13.486;2022-07-01T03:46:32;100582.72;;;21.28;100.00
55610;BME280;41486;52.502;13.486;2022-07-01T03:49:02;100587.41;;;20.90;100.00
55610;BME280;41486;52.502;13.486;2022-07-01T03:51:30;100580.47;;;20.95;100.00
55610;BME280;41486;52.502;13.486;2022-07-01T03:53:58;100581.41;;;20.88;100.00
55610;BME280;41486;52.502;13.486;2022-07-01T03:56:45;100589.44;;;20.88;100.00
55610;BME280;41486;52.502;13.486;2022-07-01T03:59:13;100580.47;;;21.10;100.00
55610;BME280;41486;52.502;13.486;2022-07-01T04:01:41;100575.13;;;21.32;100.00
55610;BME280;41486;52.502;13.486;2022-07-01T04:04:09;100583.13;;;21.10;100.00
55610;BME280;41486;52.502;13.486;2022-07-01T04:06:37;100584.09;;;21.24;100.00
55610;BME280;41486;52.502;13.486;2022-07-01T04:09:05;100588.75;;;21.37;100.00
55610;BME280;41486;52.502;13.486;2022-07-01T04:11:33;100586.72;;;21.18;100.00
55610;BME280;41486;52.502;13.486;2022-07-01T04:14:02;100578.50;;;21.19;100.00
55610;BME280;41486;52.502;13.486;2022-07-01T04:16:30;100576.22;;;21.38;100.00
55610;BME280;41486;52.502;13.486;2022-07-01T04:18:59;100585.28;;;21.37;100.00
55610;BME280;41486;52.502;13.486;2022-07-01T04:21:27;100570.69;;;21.61;100.00
55610;BME280;41486;52.502;13.486;2022-07-01T04:24:12;100589.16;;;21.56;100.00
55610;BME280;41486;52.502;13.486;2022-07-01T04:26:41;100580.25;;;21.49;100.00
55610;BME280;41486;52.502;13.486;2022-07-01T04:29:11;100588.38;;;21.40;100.00
55610;BME280;41486;52.502;13.486;2022-07-01T04:31:39;100583.91;;;21.63;100.00
55610;BME280;41486;52.502;13.486;2022-07-01T04:34:08;100588.50;;;21.69;100.00
55610;BME280;41486;52.502;13.486;2022-07-01T04:36:37;100585.97;;;21.89;100.00
55610;BME280;41486;52.502;13.486;2022-07-01T04:39:05;100590.09;;;21.63;100.00
55610;BME280;41486;52.502;13.486;2022-07-01T04:41:34;100590.19;;;21.77;100.00
55610;BME280;41486;52.502;13.486;2022-07-01T04:44:21;100591.81;;;21.71;100.00
55610;BME280;41486;52.502;13.486;2022-07-01T04:46:49;100592.34;;;21.88;100.00
55610;BME280;41486;52.502;13.486;2022-07-01T04:49:17;100591.34;;;21.89;100.00
55610;BME280;41486;52.502;13.486;2022-07-01T04:51:45;100592.44;;;21.95;100.00
55610;BME280;41486;52.502;13.486;2022-07-01T04:54:13;100589.97;;;22.00;100.00
55610;BME280;41486;52.502;13.486;2022-07-01T04:56:41;100589.50;;;22.18;100.00
55610;BME280;41486;52.502;13.486;2022-07-01T04:59:11;100592.59;;;22.21;100.00
55610;BME280;41486;52.502;13.486;2022-07-01T05:01:41;100587.88;;;22.24;100.00
55610;BME280;41486;52.502;13.486;2022-07-01T05:04:09;100583.75;;;22.49;100.00
55610;BME280;41486;52.502;13.486;2022-07-01T05:06:43;100578.34;;;22.43;100.00
55610;BME280;41486;52.502;13.486;2022-07-01T05:09:12;100583.69;;;22.43;100.00
55610;BME280;41486;52.502;13.486;2022-07-01T05:11:40;100586.38;;;22.43;100.00
55610;BME280;41486;52.502;13.486;2022-07-01T05:14:08;100585.25;;;22.59;100.00
55610;BME280;41486;52.502;13.486;2022-07-01T05:16:37;100580.09;;;22.64;100.00
55610;BME280;41486;52.502;13.486;2022-07-01T05:19:06;100584.50;;;22.78;100.00
55610;BME280;41486;52.502;13.486;2022-07-01T05:21:51;100581.44;;;22.81;100.00
55610;BME280;41486;52.502;13.486;2022-07-01T05:24:29;100574.00;;;22.83;100.00
55610;BME280;41486;52.502;13.486;2022-07-01T05:26:58;100581.88;;;22.92;100.00
55610;BME280;41486;52.502;13.486;2022-07-01T05:29:26;100594.75;;;23.10;99.33
55610;BME280;41486;52.502;13.486;2022-07-01T05:31:55;100589.34;;;23.03;100.00
55610;BME280;41486;52.502;13.486;2022-07-01T05:34:24;100596.19;;;23.12;99.33
55610;BME280;41486;52.502;13.486;2022-07-01T05:36:52;100597.69;;;23.22;99.09
55610;BME280;41486;52.502;13.486;2022-07-01T05:39:20;100592.16;;;23.30;98.92
55610;BME280;41486;52.502;13.486;2022-07-01T05:41:48;100603.75;;;23.51;96.95
55610;BME280;41486;52.502;13.486;2022-07-01T05:44:16;100601.47;;;23.68;96.37
55610;BME280;41486;52.502;13.486;2022-07-01T05:46:46;100604.81;;;23.76;95.22
55610;BME280;41486;52.502;13.486;2022-07-01T05:49:14;100620.75;;;23.91;94.37
55610;BME280;41486;52.502;13.486;2022-07-01T05:51:45;100616.84;;;24.07;93.39
55610;BME280;41486;52.502;13.486;2022-07-01T05:54:14;100635.44;;;24.09;92.97
55610;BME280;41486;52.502;13.486;2022-07-01T05:56:42;100650.34;;;24.25;92.47
55610;BME280;41486;52.502;13.486;2022-07-01T05:59:09;100666.00;;;24.48;90.32
55610;BME280;41486;52.502;13.486;2022-07-01T06:01:38;100662.69;;;24.60;89.80
55610;BME280;41486;52.502;13.486;2022-07-01T06:04:06;100663.53;;;24.67;89.39
55610;BME280;41486;52.502;13.486;2022-07-01T06:06:34;100658.97;;;24.74;88.02
55610;BME280;41486;52.502;13.486;2022-07-01T06:09:03;100672.22;;;24.55;89.20
55610;BME280;41486;52.502;13.486;2022-07-01T06:11:31;100670.97;;;24.78;87.11
55610;BME280;41486;52.502;13.486;2022-07-01T06:13:59;100657.75;;;24.70;87.67
55610;BME280;41486;52.502;13.486;2022-07-01T06:16:27;100655.22;;;24.82;87.70
55610;BME280;41486;52.502;13.486;2022-07-01T06:18:57;100657.75;;;24.70;86.95
55610;BME280;41486;52.502;13.486;2022-07-01T06:21:26;100658.09;;;24.80;86.60
55610;BME280;41486;52.502;13.486;2022-07-01T06:23:54;100659.34;;;24.84;85.67
55610;BME280;41486;52.502;13.486;2022-07-01T06:26:23;100663.03;;;24.97;85.34
55610;BME280;41486;52.502;13.486;2022-07-01T06:28:52;100665.94;;;24.95;84.90
55610;BME280;41486;52.502;13.486;2022-07-01T06:31:20;100662.78;;;25.05;84.87
55610;BME280;41486;52.502;13.486;2022-07-01T06:33:50;100678.72;;;25.13;83.41
55610;BME280;41486;52.502;13.486;2022-07-01T06:36:18;100672.91;;;25.16;84.08
55610;BME280;41486;52.502;13.486;2022-07-01T06:38:46;100666.25;;;25.26;82.65
55610;BME280;41486;52.502;13.486;2022-07-01T06:41:14;100678.06;;;25.25;82.68
55610;BME280;41486;52.502;13.486;2022-07-01T06:43:56;100672.28;;;25.14;83.35
55610;BME280;41486;52.502;13.486;2022-07-01T06:46:25;100665.47;;;25.12;83.45
55610;BME280;41486;52.502;13.486;2022-07-01T06:48:53;100670.44;;;25.15;82.80
55610;BME280;41486;52.502;13.486;2022-07-01T06:51:22;100658.44;;;25.11;82.95
55610;BME280;41486;52.502;13.486;2022-07-01T06:53:50;100671.34;;;24.88;84.21
55610;BME280;41486;52.502;13.486;2022-07-01T06:56:18;100674.00;;;24.95;83.52
55610;BME280;41486;52.502;13.486;2022-07-01T06:58:47;100676.31;;;24.92;84.56
55610;BME280;41486;52.502;13.486;2022-07-01T07:01:16;100668.44;;;24.90;84.36
55610;BME280;41486;52.502;13.486;2022-07-01T07:03:44;100670.47;;;25.01;83.35
55610;BME280;41486;52.502;13.486;2022-07-01T07:06:12;100678.34;;;25.03;84.04
55610;BME280;41486;52.502;13.486;2022-07-01T07:08:40;100656.59;;;24.98;83.85
55610;BME280;41486;52.502;13.486;2022-07-01T07:11:08;100654.59;;;24.80;84.47
55610;BME280;41486;52.502;13.486;2022-07-01T07:13:37;100654.41;;;24.75;84.29
55610;BME280;41486;52.502;13.486;2022-07-01T07:16:08;100659.59;;;24.76;84.84
55610;BME280;41486;52.502;13.486;2022-07-01T07:18:37;100654.59;;;24.86;84.93
55610;BME280;41486;52.502;13.486;2022-07-01T07:21:05;100659.53;;;24.89;84.39
55610;BME280;41486;52.502;13.486;2022-07-01T07:23:33;100656.44;;;24.86;83.90
55610;BME280;41486;52.502;13.486;2022-07-01T07:26:02;100648.19;;;24.87;83.73
55610;BME280;41486;52.502;13.486;2022-07-01T07:28:30;100650.81;;;25.01;83.09
55610;BME280;41486;52.502;13.486;2022-07-01T07:30:58;100659.88;;;25.13;80.68
55610;BME280;41486;52.502;13.486;2022-07-01T07:33:26;100656.59;;;25.11;81.35
55610;BME280;41486;52.502;13.486;2022-07-01T07:35:55;100649.34;;;25.05;79.84
55610;BME280;41486;52.502;13.486;2022-07-01T07:38:23;100646.84;;;25.10;79.27
55610;BME280;41486;52.502;13.486;2022-07-01T07:40:51;100650.72;;;25.21;78.88
55610;BME280;41486;52.502;13.486;2022-07-01T07:43:19;100656.94;;;25.22;78.14
55610;BME280;41486;52.502;13.486;2022-07-01T07:45:47;100652.19;;;25.17;78.74
55610;BME280;41486;52.502;13.486;2022-07-01T07:48:15;100651.38;;;25.16;77.58
55610;BME280;41486;52.502;13.486;2022-07-01T07:50:43;100646.59;;;25.18;78.08
55610;BME280;41486;52.502;13.486;2022-07-01T07:53:13;100649.06;;;25.27;76.27
55610;BME280;41486;52.502;13.486;2022-07-01T07:55:42;100659.56;;;25.42;76.49
55610;BME280;41486;52.502;13.486;2022-07-01T07:58:09;100664.50;;;25.38;74.27
55610;BME280;41486;52.502;13.486;2022-07-01T08:00:37;100660.88;;;25.19;73.85
55610;BME280;41486;52.502;13.486;2022-07-01T08:03:06;100656.66;;;25.36;73.59
55610;BME280;41486;52.502;13.486;2022-07-01T08:05:35;100656.66;;;25.43;73.43
55610;BME280;41486;52.502;13.486;2022-07-01T08:08:03;100644.00;;;25.37;72.33
55610;BME280;41486;52.502;13.486;2022-07-01T08:10:33;100656.66;;;25.43;71.99
55610;BME280;41486;52.502;13.486;2022-07-01T08:13:01;100647.34;;;25.32;72.26
55610;BME280;41486;52.502;13.486;2022-07-01T08:15:31;100653.50;;;25.46;71.10
55610;BME280;41486;52.502;13.486;2022-07-01T08:17:59;100653.72;;;25.51;72.35
55610;BME280;41486;52.502;13.486;2022-07-01T08:20:28;100661.66;;;25.40;72.86
55610;BME280;41486;52.502;13.486;2022-07-01T08:22:56;100659.50;;;25.55;72.29
55610;BME280;41486;52.502;13.486;2022-07-01T08:25:24;100658.78;;;25.66;71.04
55610;BME280;41486;52.502;13.486;2022-07-01T08:28:02;100662.34;;;25.60;71.06
55610;BME280;41486;52.502;13.486;2022-07-01T08:30:30;100655.31;;;25.59;71.42
55610;BME280;41486;52.502;13.486;2022-07-01T08:32:59;100658.97;;;25.72;71.52
55610;BME280;41486;52.502;13.486;2022-07-01T08:35:28;100658.22;;;25.58;71.21
55610;BME280;41486;52.502;13.486;2022-07-01T08:37:57;100654.91;;;25.88;69.22
55610;BME280;41486;52.502;13.486;2022-07-01T08:40:25;100656.56;;;25.89;68.99
55610;BME280;41486;52.502;13.486;2022-07-01T08:42:58;100666.06;;;25.66;67.96
55610;BME280;41486;52.502;13.486;2022-07-01T08:45:29;100670.78;;;25.71;68.23
55610;BME280;41486;52.502;13.486;2022-07-01T08:47:58;100663.41;;;25.85;68.36
55610;BME280;41486;52.502;13.486;2022-07-01T08:50:29;100659.25;;;25.89;67.72
55610;BME280;41486;52.502;13.486;2022-07-01T08:52:58;100660.69;;;25.91;67.23
55610;BME280;41486;52.502;13.486;2022-07-01T08:55:26;100669.53;;;25.98;67.17
55610;BME280;41486;52.502;13.486;2022-07-01T08:57:55;100670.09;;;25.82;67.92
55610;BME280;41486;52.502;13.486;2022-07-01T09:00:30;100663.41;;;25.59;67.93
55610;BME280;41486;52.502;13.486;2022-07-01T09:03:00;100657.72;;;25.74;67.88
55610;BME280;41486;52.502;13.486;2022-07-01T09:05:32;100665.16;;;25.79;67.39
55610;BME280;41486;52.502;13.486;2022-07-01T09:08:02;100671.13;;;25.81;66.49
55610;BME280;41486;52.502;13.486;2022-07-01T09:10:32;100675.44;;;25.89;66.46
55610;BME280;41486;52.502;13.486;2022-07-01T09:13:06;100678.66;;;25.72;65.64
55610;BME280;41486;52.502;13.486;2022-07-01T09:15:37;100673.09;;;25.99;66.65
55610;BME280;41486;52.502;13.486;2022-07-01T09:18:09;100673.63;;;26.14;67.54
55610;BME280;41486;52.502;13.486;2022-07-01T09:20:39;100668.88;;;26.10;67.81
55610;BME280;41486;52.502;13.486;2022-07-01T09:23:10;100684.03;;;26.04;67.73
55610;BME280;41486;52.502;13.486;2022-07-01T09:25:39;100699.09;;;25.87;68.90
55610;BME280;41486;52.502;13.486;2022-07-01T09:28:21;100695.88;;;25.71;69.22
55610;BME280;41486;52.502;13.486;2022-07-01T09:30:52;100690.88;;;25.75;69.24
55610;BME280;41486;52.502;13.486;2022-07-01T09:33:22;100704.50;;;25.80;69.05
55610;BME280;41486;52.502;13.486;2022-07-01T09:35:54;100718.47;;;25.70;69.71
55610;BME280;41486;52.502;13.486;2022-07-01T09:38:23;100737.19;;;24.25;74.70
55610;BME280;41486;52.502;13.486;2022-07-01T09:41:00;100737.63;;;23.60;78.78
55610;BME280;41486;52.502;13.486;2022-07-01T09:43:29;100758.19;;;23.26;79.54
55610;BME280;41486;52.502;13.486;2022-07-01T09:46:00;100763.78;;;23.03;81.23
55610;BME280;41486;52.502;13.486;2022-07-01T09:48:43;100770.44;;;22.79;81.39
55610;BME280;41486;52.502;13.486;2022-07-01T09:51:12;100790.44;;;22.33;82.95
55610;BME280;41486;52.502;13.486;2022-07-01T09:53:42;100818.66;;;21.92;84.17
55610;BME280;41486;52.502;13.486;2022-07-01T09:56:11;100803.53;;;21.84;85.87
55610;BME280;41486;52.502;13.486;2022-07-01T09:58:39;100798.66;;;21.73;85.62
55610;BME280;41486;52.502;13.486;2022-07-01T10:01:13;100828.47;;;21.55;86.22
55610;BME280;41486;52.502;13.486;2022-07-01T10:03:41;100812.94;;;21.35;86.58
55610;BME280;41486;52.502;13.486;2022-07-01T10:06:29;100825.56;;;21.11;87.37
55610;BME280;41486;52.502;13.486;2022-07-01T10:09:09;100827.31;;;21.04;87.21
55610;BME280;41486;52.502;13.486;2022-07-01T10:11:57;100834.44;;;21.12;86.89
55610;BME280;41486;52.502;13.486;2022-07-01T10:14:30;100843.97;;;20.76;89.20
55610;BME280;41486;52.502;13.486;2022-07-01T10:17:00;100853.09;;;20.27;92.44
55610;BME280;41486;52.502;13.486;2022-07-01T10:19:29;100849.94;;;20.55;91.91
55610;BME280;41486;52.502;13.486;2022-07-01T10:22:00;100846.97;;;20.50;90.41
55610;BME280;41486;52.502;13.486;2022-07-01T10:24:28;100843.94;;;20.53;90.65
55610;BME280;41486;52.502;13.486;2022-07-01T10:27:00;100845.34;;;20.64;89.32
55610;BME280;41486;52.502;13.486;2022-07-01T10:29:30;100855.81;;;20.51;89.91
55610;BME280;41486;52.502;13.486;2022-07-01T10:32:02;100865.91;;;20.40;89.53
55610;BME280;41486;52.502;13.486;2022-07-01T10:34:35;100864.31;;;20.31;90.19
55610;BME280;41486;52.502;13.486;2022-07-01T10:37:06;100856.81;;;20.26;91.27
55610;BME280;41486;52.502;13.486;2022-07-01T10:39:56;100859.13;;;20.29;90.72
55610;BME280;41486;52.502;13.486;2022-07-01T10:42:32;100883.81;;;20.00;93.02
55610;BME280;41486;52.502;13.486;2022-07-01T10:45:04;100863.31;;;19.92;93.49
55610;BME280;41486;52.502;13.486;2022-07-01T10:47:35;100861.81;;;19.98;93.67
55610;BME280;41486;52.502;13.486;2022-07-01T10:50:06;100872.19;;;19.76;93.73
55610;BME280;41486;52.502;13.486;2022-07-01T10:52:35;100879.69;;;19.81;94.94
55610;BME280;41486;52.502;13.486;2022-07-01T10:55:04;100872.28;;;20.08;92.83
55610;BME280;41486;52.502;13.486;2022-07-01T10:57:38;100885.59;;;20.16;92.55
55610;BME280;41486;52.502;13.486;2022-07-01T11:00:26;100893.47;;;20.09;92.75
55610;BME280;41486;52.502;13.486;2022-07-01T11:03:19;100901.72;;;19.91;93.80
55610;BME280;41486;52.502;13.486;2022-07-01T11:05:51;100900.91;;;19.82;93.08
55610;BME280;41486;52.502;13.486;2022-07-01T11:08:20;100919.50;;;19.43;95.40
55610;BME280;41486;52.502;13.486;2022-07-01T11:11:00;100929.00;;;19.20;97.31
55610;BME280;41486;52.502;13.486;2022-07-01T11:13:34;100925.69;;;19.10;97.54
55610;BME280;41486;52.502;13.486;2022-07-01T11:16:03;100915.34;;;19.15;96.54
55610;BME280;41486;52.502;13.486;2022-07-01T11:18:33;100923.34;;;19.07;96.96
55610;BME280;41486;52.502;13.486;2022-07-01T11:21:06;100897.69;;;19.06;96.68
55610;BME280;41486;52.502;13.486;2022-07-01T11:23:34;100894.34;;;19.04;97.46
55610;BME280;41486;52.502;13.486;2022-07-01T11:26:20;100910.63;;;18.76;97.82
55610;BME280;41486;52.502;13.486;2022-07-01T11:28:48;100909.47;;;18.87;97.61
55610;BME280;41486;52.502;13.486;2022-07-01T11:31:29;100913.63;;;18.73;97.17
55610;BME280;41486;52.502;13.486;2022-07-01T11:33:59;100919.59;;;18.67;98.49
55610;BME280;41486;52.502;13.486;2022-07-01T11:36:27;100933.44;;;18.62;98.46
55610;BME280;41486;52.502;13.486;2022-07-01T11:39:13;100917.91;;;18.49;99.20
55610;BME280;41486;52.502;13.486;2022-07-01T11:42:00;100888.78;;;18.64;98.01
55610;BME280;41486;52.502;13.486;2022-07-01T11:44:33;100856.97;;;18.63;98.06
55610;BME280;41486;52.502;13.486;2022-07-01T11:47:03;100851.97;;;18.59;97.73
55610;BME280;41486;52.502;13.486;2022-07-01T11:49:33;100866.59;;;18.55;100.00
55610;BME280;41486;52.502;13.486;2022-07-01T11:52:03;100868.47;;;18.63;100.00
55610;BME280;41486;52.502;13.486;2022-07-01T11:54:35;100877.78;;;18.59;100.00
55610;BME280;41486;52.502;13.486;2022-07-01T11:57:08;100879.75;;;18.32;100.00
55610;BME280;41486;52.502;13.486;2022-07-01T11:59:37;100874.41;;;18.32;100.00
55610;BME280;41486;52.502;13.486;2022-07-01T12:02:07;100866.25;;;18.42;100.00
55610;BME280;41486;52.502;13.486;2022-07-01T12:04:39;100873.09;;;18.44;100.00
55610;BME280;41486;52.502;13.486;2022-07-01T12:07:09;100868.31;;;18.73;100.00
55610;BME280;41486;52.502;13.486;2022-07-01T12:09:38;100865.34;;;19.09;100.00
55610;BME280;41486;52.502;13.486;2022-07-01T12:12:14;100855.66;;;18.83;100.00
55610;BME280;41486;52.502;13.486;2022-07-01T12:14:49;100857.63;;;18.81;100.00
55610;BME280;41486;52.502;13.486;2022-07-01T12:17:19;100864.78;;;18.56;100.00
55610;BME280;41486;52.502;13.486;2022-07-01T12:19:49;100871.13;;;18.63;100.00
55610;BME280;41486;52.502;13.486;2022-07-01T12:22:22;100873.78;;;18.55;100.00
55610;BME280;41486;52.502;13.486;2022-07-01T12:24:52;100853.47;;;18.62;100.00
55610;BME280;41486;52.502;13.486;2022-07-01T12:27:24;100855.97;;;18.72;100.00
55610;BME280;41486;52.502;13.486;2022-07-01T12:29:53;100862.66;;;18.68;100.00
55610;BME280;41486;52.502;13.486;2022-07-01T12:32:22;100855.19;;;18.96;100.00
55610;BME280;41486;52.502;13.486;2022-07-01T12:34:56;100851.63;;;18.87;100.00
55610;BME280;41486;52.502;13.486;2022-07-01T12:37:29;100852.13;;;18.91;98.95
55610;BME280;41486;52.502;13.486;2022-07-01T12:40:20;100848.81;;;19.22;97.25
55610;BME280;41486;52.502;13.486;2022-07-01T12:42:48;100850.03;;;18.95;98.37
55610;BME280;41486;52.502;13.486;2022-07-01T12:45:23;100857.50;;;18.99;99.21
55610;BME280;41486;52.502;13.486;2022-07-01T12:47:52;100858.13;;;18.85;99.18
55610;BME280;41486;52.502;13.486;2022-07-01T12:50:23;100863.47;;;18.68;100.00